Time;durP1;ratioP1;P1;durP2;ratioP2;P2;SDS_P1;SDS_P2;PMS_P1;PMS_P2;Temp;Humidity;BMP_temperature;BMP_pressure;BME280_temperature;BME280_humidity;BME280_pressure;Samples;Min_cycle;Max_cycle;Signal;HPM_P1;HPM_P2
2023/01/15 00:00:58;;;;;;;0.50;0.30;;;12.20;99.90;;;;;;6247023;22;20180;-87
2023/01/15 00:03:24;;;;;;;1.53;0.30;;;11.40;99.90;;;;;;6245005;23;20148;-87
2023/01/15 00:05:49;;;;;;;1.10;0.30;;;11.40;99.90;;;;;;6245529;23;20145;-86
2023/01/15 00:08:15;;;;;;;0.80;0.40;;;11.40;99.90;;;;;;6246631;23;20202;-87
2023/01/15 00:10:42;;;;;;;0.40;0.30;;;11.40;99.90;;;;;;6246907;23;20151;-87
2023/01/15 00:13:07;;;;;;;0.50;0.40;;;11.40;99.90;;;;;;6247748;23;20226;-85
2023/01/15 00:15:33;;;;;;;0.50;0.30;;;11.40;99.90;;;;;;6244522;23;20153;-85
2023/01/15 00:17:58;;;;;;;0.40;0.30;;;11.30;99.90;;;;;;6244333;23;20160;-86
2023/01/15 00:20:24;;;;;;;0.50;0.50;;;11.40;99.90;;;;;;6245167;23;20166;-90
2023/01/15 00:22:49;;;;;;;1.53;0.70;;;11.40;99.90;;;;;;6249793;23;20277;-85
2023/01/15 00:27:59;;;;;;;0.52;0.30;;;11.40;99.90;;;;;;6254968;23;20262;-84
2023/01/15 00:30:24;;;;;;;0.93;0.60;;;11.40;99.90;;;;;;6249885;23;20149;-84
2023/01/15 00:32:50;;;;;;;0.47;0.30;;;11.40;99.90;;;;;;6247995;23;20188;-83
2023/01/15 00:35:21;;;;;;;0.40;0.37;;;11.40;99.90;;;;;;6247068;23;20206;-84
2023/01/15 00:37:47;;;;;;;0.40;0.30;;;11.40;99.90;;;;;;6248426;23;20144;-83
2023/01/15 00:40:14;;;;;;;0.53;0.40;;;11.40;99.90;;;;;;6248585;23;20153;-85
2023/01/15 00:42:40;;;;;;;0.50;0.40;;;11.40;99.90;;;;;;6248957;23;20172;-85
2023/01/15 00:45:09;;;;;;;3.57;1.10;;;11.30;99.90;;;;;;6247517;23;20179;-85
2023/01/15 00:47:40;;;;;;;0.50;0.40;;;11.30;99.90;;;;;;6248097;23;20291;-82
2023/01/15 00:50:09;;;;;;;0.68;0.45;;;11.30;99.90;;;;;;6249800;23;20149;-84
2023/01/15 00:52:34;;;;;;;0.60;0.40;;;11.40;99.90;;;;;;6247751;23;20193;-85
2023/01/15 00:55:00;;;;;;;0.53;0.30;;;11.30;99.90;;;;;;6250156;23;20128;-85
2023/01/15 00:57:26;;;;;;;0.50;0.33;;;11.30;99.90;;;;;;6249142;23;20148;-85
2023/01/15 00:59:52;;;;;;;0.40;0.40;;;11.40;99.90;;;;;;6251436;23;20156;-84
2023/01/15 01:02:17;;;;;;;1.63;0.40;;;11.40;99.90;;;;;;6252540;23;20200;-85
2023/01/15 01:04:43;;;;;;;0.90;0.40;;;11.50;99.90;;;;;;6252534;23;20183;-85
2023/01/15 01:07:09;;;;;;;1.33;0.40;;;11.50;99.90;;;;;;6251217;23;20640;-86
2023/01/15 01:09:34;;;;;;;1.40;0.50;;;11.50;99.90;;;;;;6251824;23;20152;-86
2023/01/15 01:12:00;;;;;;;1.20;0.70;;;11.50;99.90;;;;;;6251004;23;20223;-81
2023/01/15 01:14:26;;;;;;;0.67;0.30;;;11.60;99.90;;;;;;6259895;23;20153;-84
2023/01/15 01:16:52;;;;;;;0.88;0.45;;;11.60;99.90;;;;;;6255047;23;20390;-84
2023/01/15 01:19:21;;;;;;;1.10;0.50;;;11.60;99.90;;;;;;6260506;23;20156;-81
2023/01/15 01:21:48;;;;;;;1.75;0.70;;;11.50;99.90;;;;;;6265898;22;20431;-84
2023/01/15 01:24:20;;;;;;;1.17;0.65;;;11.90;99.90;;;;;;6254726;22;20156;-87
2023/01/15 01:26:46;;;;;;;1.30;0.50;;;11.60;99.90;;;;;;6255970;22;20726;-84
2023/01/15 01:29:13;;;;;;;0.40;0.40;;;11.60;99.90;;;;;;6259008;22;20129;-82
2023/01/15 01:31:39;;;;;;;0.73;0.40;;;11.60;99.90;;;;;;6257530;23;20195;-82
2023/01/15 01:34:05;;;;;;;0.53;0.40;;;11.60;99.90;;;;;;6256529;23;20158;-86
2023/01/15 01:36:34;;;;;;;0.73;0.43;;;11.70;99.90;;;;;;6251019;23;20161;-84
2023/01/15 01:39:00;;;;;;;0.70;0.30;;;11.70;99.90;;;;;;6250207;22;20167;-85
2023/01/15 01:41:27;;;;;;;0.40;0.32;;;11.60;99.90;;;;;;6248462;23;20686;-83
2023/01/15 01:43:59;;;;;;;0.40;0.30;;;11.60;99.90;;;;;;6250345;22;20140;-81
2023/01/15 01:46:26;;;;;;;1.00;0.50;;;11.50;99.90;;;;;;6249400;23;20169;-83
2023/01/15 01:48:58;;;;;;;0.40;0.30;;;11.70;99.90;;;;;;6248994;23;20148;-85
2023/01/15 01:51:28;;;;;;;0.40;0.30;;;11.70;99.90;;;;;;6247840;23;20168;-87
2023/01/15 01:53:55;;;;;;;0.80;0.50;;;11.70;99.90;;;;;;6251229;22;20152;-83
2023/01/15 01:56:22;;;;;;;0.60;0.40;;;11.70;99.90;;;;;;6249866;23;20191;-87
2023/01/15 01:58:52;;;;;;;0.40;0.30;;;11.70;99.90;;;;;;6249426;23;20157;-85
2023/01/15 02:01:19;;;;;;;0.40;0.30;;;11.60;99.90;;;;;;6248782;22;20169;-82
2023/01/15 02:03:45;;;;;;;0.50;0.32;;;11.60;99.90;;;;;;6246830;23;20160;-86
2023/01/15 02:06:12;;;;;;;2.63;1.10;;;11.60;99.90;;;;;;6245131;23;20243;-84
2023/01/15 02:08:38;;;;;;;1.02;0.40;;;11.70;99.90;;;;;;6245500;23;20390;-85
2023/01/15 02:11:06;;;;;;;0.40;0.30;;;11.60;99.90;;;;;;6244478;23;20153;-87
2023/01/15 02:13:49;;;;;;;0.60;0.40;;;12.30;99.90;;;;;;6245775;23;20376;-86
2023/01/15 02:16:53;;;;;;;0.55;0.32;;;11.70;99.90;;;;;;6247897;22;20132;-87
2023/01/15 02:19:18;;;;;;;0.85;0.30;;;11.70;99.90;;;;;;6243959;23;20175;-85
2023/01/15 02:21:53;;;;;;;0.40;0.30;;;11.70;99.90;;;;;;6240379;23;20172;-86
2023/01/15 02:24:36;;;;;;;0.75;0.50;;;11.70;99.90;;;;;;6246601;22;20137;-83
2023/01/15 02:27:15;;;;;;;0.52;0.30;;;11.70;99.90;;;;;;6244844;23;20176;-82
2023/01/15 02:29:52;;;;;;;0.45;0.30;;;11.70;99.90;;;;;;6244651;23;20140;-86
2023/01/15 02:32:30;;;;;;;0.85;0.30;;;11.70;99.90;;;;;;6246742;23;20184;-83
2023/01/15 02:35:02;;;;;;;5.32;0.60;;;11.70;99.90;;;;;;6244873;23;20128;-82
2023/01/15 02:37:31;;;;;;;0.80;0.40;;;11.70;99.90;;;;;;6245142;23;20152;-85
2023/01/15 02:39:59;;;;;;;0.60;0.30;;;11.70;99.90;;;;;;6244867;23;20159;-85
2023/01/15 02:42:28;;;;;;;0.50;0.30;;;11.70;99.90;;;;;;6243963;23;20172;-86
2023/01/15 02:44:56;;;;;;;0.98;0.30;;;11.70;99.90;;;;;;6245122;23;20160;-82
2023/01/15 02:47:27;;;;;;;0.73;0.65;;;11.80;99.90;;;;;;6250330;22;20222;-82
2023/01/15 02:49:56;;;;;;;0.40;0.30;;;11.80;99.90;;;;;;6249214;23;20167;-81
2023/01/15 02:52:27;;;;;;;1.60;0.30;;;11.80;99.90;;;;;;6250440;22;20160;-84
2023/01/15 02:55:01;;;;;;;0.50;0.30;;;11.80;99.90;;;;;;6250483;23;20144;-84
2023/01/15 02:57:31;;;;;;;0.50;0.30;;;11.90;99.90;;;;;;6250496;23;20152;-82
2023/01/15 02:59:58;;;;;;;0.40;0.30;;;11.80;99.90;;;;;;6249753;23;20152;-85
2023/01/15 03:02:29;;;;;;;0.70;0.20;;;11.70;99.90;;;;;;6249179;23;20172;-82
2023/01/15 03:05:08;;;;;;;0.40;0.30;;;12.00;99.90;;;;;;6248406;23;20149;-82
2023/01/15 03:07:43;;;;;;;0.85;0.30;;;11.90;99.90;;;;;;6254048;22;20164;-82
2023/01/15 03:10:09;;;;;;;0.40;0.30;;;11.80;99.90;;;;;;6250126;23;20202;-81
2023/01/15 03:13:04;;;;;;;0.35;0.20;;;11.70;99.90;;;;;;6250678;22;20160;-86
2023/01/15 03:18:38;;;;;;;1.38;0.30;;;11.80;99.90;;;;;;6249766;23;20146;-84
2023/01/15 03:21:09;;;;;;;0.40;0.23;;;12.60;99.90;;;;;;6244729;22;20137;-82
2023/01/15 03:23:38;;;;;;;1.60;0.50;;;11.80;99.90;;;;;;6248816;22;20355;-84
2023/01/15 03:26:03;;;;;;;0.40;0.30;;;11.90;99.90;;;;;;6248662;23;20156;-81
2023/01/15 03:28:34;;;;;;;0.40;0.30;;;11.90;99.90;;;;;;6249056;23;20157;-84
2023/01/15 03:31:00;;;;;;;0.43;0.30;;;11.90;99.90;;;;;;6247826;23;20834;-85
2023/01/15 03:33:26;;;;;;;0.83;0.40;;;11.90;99.90;;;;;;6248064;23;20275;-84
2023/01/15 03:35:57;;;;;;;0.30;0.20;;;12.00;99.90;;;;;;6247966;23;20606;-85
2023/01/15 03:38:35;;;;;;;0.40;0.30;;;12.00;99.90;;;;;;6249289;23;20655;-87
2023/01/15 03:41:06;;;;;;;0.40;0.20;;;11.90;99.90;;;;;;6247176;23;20174;-83
2023/01/15 03:43:57;;;;;;;0.40;0.30;;;11.90;99.90;;;;;;6247039;23;20148;-80
2023/01/15 03:46:57;;;;;;;0.40;0.20;;;11.90;99.90;;;;;;6246776;23;20281;-84
2023/01/15 03:49:58;;;;;;;0.40;0.30;;;12.00;99.90;;;;;;6247653;23;20160;-84
2023/01/15 03:52:29;;;;;;;0.60;0.40;;;12.00;99.90;;;;;;6220824;23;20173;-83
2023/01/15 03:55:10;;;;;;;0.60;0.30;;;12.10;99.90;;;;;;6249133;23;20158;-81
2023/01/15 03:57:58;;;;;;;0.40;0.20;;;12.10;99.90;;;;;;6248771;23;20232;-82
2023/01/15 04:00:27;;;;;;;0.55;0.38;;;12.10;99.90;;;;;;6248279;23;20152;-84
2023/01/15 04:02:56;;;;;;;0.50;0.37;;;12.10;99.90;;;;;;6247662;23;20893;-86
2023/01/15 04:05:22;;;;;;;0.93;0.50;;;12.20;99.90;;;;;;6248754;22;20388;-86
2023/01/15 04:07:50;;;;;;;0.40;0.20;;;12.20;99.90;;;;;;6250137;22;20474;-83
2023/01/15 04:10:16;;;;;;;0.40;0.30;;;12.30;99.90;;;;;;6249357;22;20176;-82
2023/01/15 04:12:41;;;;;;;0.40;0.30;;;12.30;99.90;;;;;;6246571;23;20222;-77
2023/01/15 04:15:07;;;;;;;0.70;0.47;;;12.30;99.90;;;;;;6243079;23;20152;-82
2023/01/15 04:17:34;;;;;;;0.82;0.40;;;12.30;99.90;;;;;;6250187;23;20140;-82
2023/01/15 04:19:59;;;;;;;0.60;0.40;;;12.30;99.90;;;;;;6249097;23;20516;-86
2023/01/15 04:22:25;;;;;;;0.40;0.30;;;12.40;99.90;;;;;;6247278;23;20184;-78
2023/01/15 04:24:50;;;;;;;0.37;0.27;;;12.40;99.90;;;;;;6249235;23;20149;-84
2023/01/15 04:27:16;;;;;;;0.40;0.20;;;12.40;99.90;;;;;;6248126;23;20408;-81
2023/01/15 04:29:41;;;;;;;0.40;0.30;;;12.30;99.90;;;;;;6248257;23;20185;-84
2023/01/15 04:32:07;;;;;;;0.40;0.30;;;12.20;99.90;;;;;;6250473;23;20187;-78
2023/01/15 04:34:34;;;;;;;0.40;0.30;;;11.50;99.90;;;;;;6248601;23;20596;-85
2023/01/15 04:37:00;;;;;;;0.95;0.50;;;10.60;99.90;;;;;;6249912;23;20157;-85
2023/01/15 04:39:25;;;;;;;0.40;0.30;;;9.80;99.90;;;;;;6249792;23;20176;-85
2023/01/15 04:44:36;;;;;;;0.30;0.20;;;9.20;99.90;;;;;;6250052;23;20194;-84
2023/01/15 04:47:01;;;;;;;0.50;0.40;;;9.40;99.90;;;;;;6250873;22;20157;-84
2023/01/15 04:49:27;;;;;;;0.73;0.40;;;8.80;99.90;;;;;;6249027;23;20153;-82
2023/01/15 04:51:53;;;;;;;0.40;0.40;;;8.70;99.90;;;;;;6247221;23;20164;-83
2023/01/15 04:54:19;;;;;;;1.73;0.50;;;8.60;99.90;;;;;;6250257;23;20163;-84
2023/01/15 04:56:46;;;;;;;0.47;0.30;;;8.50;99.90;;;;;;6249267;23;20163;-86
2023/01/15 04:59:13;;;;;;;0.50;0.30;;;8.50;99.90;;;;;;6246806;23;20160;-87
2023/01/15 05:01:39;;;;;;;0.40;0.30;;;8.40;99.90;;;;;;6253038;23;20244;-84
2023/01/15 05:04:05;;;;;;;0.40;0.30;;;8.40;99.90;;;;;;6250654;23;20160;-85
2023/01/15 05:06:31;;;;;;;2.80;0.45;;;8.30;99.90;;;;;;6249539;23;20173;-86
2023/01/15 05:08:57;;;;;;;0.50;0.30;;;8.30;99.90;;;;;;6252922;23;20152;-88
2023/01/15 05:11:23;;;;;;;0.30;0.28;;;8.30;99.90;;;;;;6250988;23;20168;-84
2023/01/15 05:13:49;;;;;;;0.30;0.30;;;8.30;99.90;;;;;;6248534;23;20140;-88
2023/01/15 05:16:16;;;;;;;0.30;0.30;;;8.30;99.90;;;;;;6249307;23;20379;-86
2023/01/15 05:18:44;;;;;;;0.40;0.30;;;8.20;99.90;;;;;;6247716;22;20172;-83
2023/01/15 05:21:17;;;;;;;0.57;0.35;;;8.20;99.90;;;;;;6247070;22;20203;-84
2023/01/15 05:23:43;;;;;;;0.40;0.30;;;8.20;99.90;;;;;;6246344;23;20159;-84
2023/01/15 05:26:10;;;;;;;0.50;0.30;;;8.10;99.90;;;;;;6246641;23;20191;-88
2023/01/15 05:28:35;;;;;;;0.73;0.50;;;8.10;99.90;;;;;;6246914;23;20153;-89
2023/01/15 05:31:16;;;;;;;0.50;0.30;;;8.10;99.90;;;;;;6247141;23;20158;-87
2023/01/15 05:33:43;;;;;;;0.40;0.30;;;8.00;99.90;;;;;;6246115;22;20525;-87
2023/01/15 05:36:11;;;;;;;0.30;0.20;;;8.00;99.90;;;;;;6243430;23;20155;-88
2023/01/15 05:38:38;;;;;;;0.40;0.30;;;7.90;99.90;;;;;;6245284;23;20145;-88
2023/01/15 05:41:47;;;;;;;0.68;0.50;;;7.90;99.90;;;;;;6245588;23;20285;-88
2023/01/15 05:43:54;;;;;;;0.50;0.30;;;7.80;99.90;;;;;;6246895;23;20236;-86
2023/01/15 05:46:20;;;;;;;0.38;0.35;;;7.80;99.90;;;;;;6245576;23;20177;-88
2023/01/15 05:48:46;;;;;;;0.40;0.30;;;7.70;99.90;;;;;;6246982;23;20949;-89
2023/01/15 05:51:12;;;;;;;0.40;0.30;;;8.90;99.90;;;;;;6243852;23;20168;-87
2023/01/15 05:53:37;;;;;;;0.30;0.30;;;7.50;99.90;;;;;;6249141;23;20410;-85
2023/01/15 05:56:04;;;;;;;0.50;0.30;;;7.40;99.90;;;;;;6257360;23;20133;-83
2023/01/15 05:58:30;;;;;;;0.55;0.40;;;7.30;99.90;;;;;;6244392;23;20161;-85
2023/01/15 06:00:55;;;;;;;0.40;0.35;;;7.30;99.90;;;;;;6245871;23;20785;-89
2023/01/15 06:03:22;;;;;;;0.40;0.30;;;7.20;99.90;;;;;;6255666;22;20224;-85
2023/01/15 06:05:55;;;;;;;0.40;0.30;;;7.10;99.90;;;;;;6250618;23;20149;-89
2023/01/15 06:08:21;;;;;;;1.77;0.40;;;7.10;99.90;;;;;;6247530;22;20198;-86
2023/01/15 06:10:47;;;;;;;0.40;0.30;;;7.00;99.90;;;;;;6246039;23;20144;-88
2023/01/15 06:13:14;;;;;;;0.30;0.30;;;7.00;99.90;;;;;;6255600;23;20242;-88
2023/01/15 06:15:39;;;;;;;0.40;0.32;;;6.90;99.90;;;;;;6246315;23;20153;-85
2023/01/15 06:18:05;;;;;;;0.60;0.30;;;6.90;99.90;;;;;;6243531;23;20163;-87
2023/01/15 06:20:33;;;;;;;0.50;0.33;;;6.90;99.90;;;;;;6245465;23;20152;-87
2023/01/15 06:22:59;;;;;;;0.50;0.32;;;6.90;99.90;;;;;;6246246;23;20780;-88
2023/01/15 06:25:24;;;;;;;0.90;0.30;;;6.90;99.90;;;;;;6240367;23;20152;-89
2023/01/15 06:27:50;;;;;;;1.13;0.50;;;6.90;99.90;;;;;;6244376;23;20267;-86
2023/01/15 06:30:16;;;;;;;0.67;0.30;;;6.80;99.90;;;;;;6242490;23;20159;-88
2023/01/15 06:32:41;;;;;;;0.50;0.40;;;6.80;99.90;;;;;;6243429;23;20187;-86
2023/01/15 06:35:07;;;;;;;0.40;0.40;;;6.80;99.90;;;;;;6244001;23;20384;-88
2023/01/15 06:37:33;;;;;;;0.90;0.33;;;6.70;99.90;;;;;;6244557;23;20160;-86
2023/01/15 06:39:58;;;;;;;0.30;0.30;;;6.70;99.90;;;;;;6244806;23;20809;-88
2023/01/15 06:47:57;;;;;;;0.30;0.30;;;6.30;99.90;;;;;;6240495;23;20562;-84
2023/01/15 06:50:24;;;;;;;0.52;0.30;;;6.20;99.90;;;;;;6239189;22;20136;-82
2023/01/15 06:52:50;;;;;;;0.60;0.30;;;6.10;99.90;;;;;;6240155;23;20167;-83
2023/01/15 06:55:17;;;;;;;0.40;0.30;;;6.00;99.90;;;;;;6238955;23;20152;-81
2023/01/15 06:57:43;;;;;;;0.40;0.30;;;6.00;99.90;;;;;;6240124;22;20795;-82
2023/01/15 07:00:10;;;;;;;0.60;0.30;;;5.90;99.90;;;;;;6239080;23;20247;-80
2023/01/15 07:02:35;;;;;;;0.30;0.30;;;5.90;99.90;;;;;;6240646;22;20478;-82
2023/01/15 07:05:01;;;;;;;0.30;0.30;;;5.90;99.90;;;;;;6234034;23;20646;-81
2023/01/15 07:07:28;;;;;;;0.30;0.30;;;5.90;99.90;;;;;;6236382;23;20183;-86
2023/01/15 07:09:54;;;;;;;0.30;0.20;;;5.90;99.90;;;;;;6239662;23;20152;-83
2023/01/15 07:12:20;;;;;;;0.40;0.30;;;5.90;99.90;;;;;;6237749;23;20194;-83
2023/01/15 07:14:46;;;;;;;0.40;0.30;;;5.90;99.90;;;;;;6241380;22;20363;-84
2023/01/15 07:17:12;;;;;;;0.40;0.40;;;5.90;99.90;;;;;;6241333;23;20164;-81
2023/01/15 07:19:38;;;;;;;0.40;0.40;;;5.90;99.90;;;;;;6240572;23;20187;-82
2023/01/15 07:22:04;;;;;;;0.30;0.27;;;5.90;99.90;;;;;;6243275;23;20176;-81
2023/01/15 07:24:30;;;;;;;0.88;0.50;;;5.80;99.90;;;;;;6243129;23;20167;-80
2023/01/15 07:26:56;;;;;;;1.17;0.80;;;5.80;99.90;;;;;;6244520;22;20200;-81
2023/01/15 07:29:22;;;;;;;0.37;0.30;;;5.80;99.90;;;;;;6242774;23;20160;-83
2023/01/15 07:31:48;;;;;;;0.30;0.20;;;5.80;99.90;;;;;;6241869;22;20184;-82
2023/01/15 07:34:13;;;;;;;0.30;0.30;;;5.80;99.90;;;;;;6240131;22;20133;-83
2023/01/15 07:36:39;;;;;;;3.80;0.40;;;5.80;99.90;;;;;;6241038;23;20243;-82
2023/01/15 07:39:06;;;;;;;0.40;0.33;;;5.70;99.90;;;;;;6240009;23;20152;-82
2023/01/15 07:49:45;;;;;;;1.35;1.25;;;5.70;99.90;;;;;;6241508;23;20163;-83
2023/01/15 07:52:13;;;;;;;1.25;0.63;;;5.70;99.90;;;;;;6239864;23;20255;-84
2023/01/15 07:54:38;;;;;;;0.43;0.40;;;5.70;99.90;;;;;;6238100;23;20232;-84
2023/01/15 07:57:05;;;;;;;0.60;0.60;;;5.70;99.90;;;;;;6241829;23;20164;-84
2023/01/15 07:59:30;;;;;;;0.82;0.70;;;5.80;99.90;;;;;;6241353;23;20255;-80
2023/01/15 08:01:56;;;;;;;0.63;0.60;;;5.70;99.90;;;;;;6240272;23;20188;-79
2023/01/15 08:04:21;;;;;;;0.80;0.70;;;5.70;99.90;;;;;;6237402;23;20156;-83
2023/01/15 08:06:47;;;;;;;0.37;0.30;;;5.70;99.90;;;;;;6238148;23;20222;-84
2023/01/15 08:09:12;;;;;;;0.50;0.50;;;5.70;99.90;;;;;;6236936;23;20231;-82
2023/01/15 08:17:06;;;;;;;0.65;0.50;;;5.60;99.90;;;;;;6241131;23;20198;-79
2023/01/15 08:19:32;;;;;;;0.57;0.50;;;5.60;99.90;;;;;;6239018;23;20152;-80
2023/01/15 08:22:00;;;;;;;0.60;0.50;;;5.60;99.90;;;;;;6240016;23;20184;-84
2023/01/15 08:24:26;;;;;;;0.50;0.43;;;5.60;99.90;;;;;;6243690;23;20282;-83
2023/01/15 08:26:52;;;;;;;0.40;0.40;;;5.60;99.90;;;;;;6241657;23;20206;-82
2023/01/15 08:29:17;;;;;;;0.40;0.30;;;5.60;99.90;;;;;;6243164;23;20391;-83
2023/01/15 08:31:43;;;;;;;0.67;0.67;;;5.60;99.90;;;;;;6242880;22;20403;-82
2023/01/15 08:34:09;;;;;;;1.37;0.50;;;5.60;99.90;;;;;;6241527;23;20689;-82
2023/01/15 08:36:35;;;;;;;0.40;0.33;;;5.60;99.90;;;;;;6241958;23;20666;-82
2023/01/15 08:39:00;;;;;;;0.47;0.47;;;5.60;99.90;;;;;;6241358;23;20383;-82
2023/01/15 08:41:26;;;;;;;0.50;0.40;;;5.60;99.90;;;;;;6237933;23;20173;-83
2023/01/15 08:43:51;;;;;;;0.40;0.30;;;5.60;99.90;;;;;;6238127;23;20153;-83
2023/01/15 08:46:17;;;;;;;0.40;0.30;;;5.60;99.90;;;;;;6242329;23;20172;-84
2023/01/15 08:48:47;;;;;;;0.30;0.30;;;5.50;99.90;;;;;;6240710;23;20152;-82
2023/01/15 08:51:13;;;;;;;0.30;0.20;;;5.50;99.90;;;;;;6242090;22;20171;-82
2023/01/15 08:53:39;;;;;;;0.43;0.30;;;5.40;99.90;;;;;;6242051;23;20722;-80
2023/01/15 08:56:15;;;;;;;0.30;0.30;;;5.50;99.90;;;;;;6243684;23;20183;-80
2023/01/15 08:58:40;;;;;;;1.88;0.38;;;5.40;99.90;;;;;;6240186;22;20133;-81
2023/01/15 09:01:08;;;;;;;0.37;0.30;;;5.40;99.90;;;;;;6242200;23;20159;-82
2023/01/15 09:03:35;;;;;;;0.30;0.30;;;5.40;99.90;;;;;;6240826;23;20157;-84
2023/01/15 09:06:01;;;;;;;0.70;0.30;;;5.40;99.90;;;;;;6242172;22;20697;-82
2023/01/15 09:08:28;;;;;;;0.85;0.57;;;5.40;99.90;;;;;;6242920;22;20174;-84
2023/01/15 09:10:58;;;;;;;0.88;0.75;;;5.40;99.90;;;;;;6240707;23;20129;-83
2023/01/15 09:13:24;;;;;;;4.72;0.30;;;5.40;99.90;;;;;;6241750;23;20149;-82
2023/01/15 09:15:50;;;;;;;0.30;0.30;;;5.40;99.90;;;;;;6243397;22;20208;-83
2023/01/15 09:18:18;;;;;;;0.40;0.30;;;5.30;99.90;;;;;;6240490;23;20183;-81
2023/01/15 09:20:46;;;;;;;0.40;0.40;;;5.40;99.90;;;;;;6245004;22;20153;-81
2023/01/15 09:23:12;;;;;;;0.40;0.30;;;5.30;99.90;;;;;;6242745;23;20180;-82
2023/01/15 09:25:38;;;;;;;0.53;0.33;;;5.30;99.90;;;;;;6244119;22;20156;-81
2023/01/15 09:28:04;;;;;;;0.40;0.30;;;5.20;99.90;;;;;;6242743;23;20469;-81
2023/01/15 09:30:29;;;;;;;0.50;0.30;;;5.20;99.90;;;;;;6240049;23;20156;-82
2023/01/15 09:32:55;;;;;;;2.27;0.63;;;5.20;99.90;;;;;;6243500;23;20411;-80
2023/01/15 09:35:24;;;;;;;0.40;0.30;;;5.20;99.90;;;;;;6239850;23;20463;-80
2023/01/15 09:37:53;;;;;;;0.30;0.30;;;5.10;99.90;;;;;;6241003;23;20129;-82
2023/01/15 09:40:40;;;;;;;0.30;0.30;;;5.10;99.90;;;;;;6241438;23;20167;-79
2023/01/15 09:43:14;;;;;;;0.30;0.20;;;5.00;99.90;;;;;;6244108;23;20179;-80
2023/01/15 09:46:21;;;;;;;0.40;0.30;;;5.10;99.90;;;;;;6241598;23;20155;-80
2023/01/15 09:49:00;;;;;;;0.90;0.55;;;5.00;99.90;;;;;;6264247;22;20191;-81
2023/01/15 09:51:26;;;;;;;0.60;0.30;;;4.90;99.90;;;;;;6242664;22;20168;-82
2023/01/15 09:54:15;;;;;;;0.60;0.50;;;4.90;99.90;;;;;;6243567;23;20543;-82
2023/01/15 09:56:41;;;;;;;0.98;0.30;;;4.90;99.90;;;;;;6236758;23;20156;-81
2023/01/15 09:59:30;;;;;;;0.50;0.40;;;4.90;99.90;;;;;;6235678;23;20183;-81
2023/01/15 10:01:55;;;;;;;1.52;0.40;;;4.80;99.90;;;;;;6239076;22;20393;-80
2023/01/15 10:04:35;;;;;;;0.40;0.30;;;4.80;99.90;;;;;;6235549;23;20188;-79
2023/01/15 10:07:27;;;;;;;0.63;0.63;;;4.80;99.90;;;;;;6236825;22;20230;-80
2023/01/15 10:10:01;;;;;;;1.75;0.30;;;4.70;99.90;;;;;;6230601;23;20587;-80
2023/01/15 10:12:35;;;;;;;0.40;0.40;;;4.70;99.90;;;;;;6235392;23;20175;-80
2023/01/15 10:15:26;;;;;;;0.90;0.57;;;4.70;99.90;;;;;;6234614;23;20709;-79
2023/01/15 10:17:55;;;;;;;5.93;0.70;;;4.70;99.90;;;;;;6237544;22;20137;-80
2023/01/15 10:20:36;;;;;;;0.30;0.20;;;4.70;99.90;;;;;;6232659;23;20164;-80
2023/01/15 10:23:20;;;;;;;0.77;0.60;;;4.70;99.90;;;;;;6236511;23;20238;-82
2023/01/15 10:25:49;;;;;;;0.60;0.30;;;4.60;99.90;;;;;;6236275;23;20156;-80
2023/01/15 10:28:46;;;;;;;0.30;0.30;;;4.60;99.90;;;;;;6239646;22;20172;-78
2023/01/15 10:31:20;;;;;;;0.40;0.30;;;4.60;99.90;;;;;;6237227;22;20157;-81
2023/01/15 10:33:48;;;;;;;0.30;0.20;;;4.60;99.90;;;;;;6239318;22;20145;-81
2023/01/15 10:36:29;;;;;;;1.10;0.52;;;4.60;99.90;;;;;;6236109;23;20152;-80
2023/01/15 10:39:08;;;;;;;0.30;0.20;;;4.60;99.90;;;;;;6238921;22;20579;-81
2023/01/15 10:41:46;;;;;;;0.30;0.30;;;4.50;99.90;;;;;;6238222;22;20175;-81
2023/01/15 10:44:19;;;;;;;0.50;0.30;;;4.50;99.90;;;;;;6239614;23;20171;-82
2023/01/15 10:46:52;;;;;;;0.30;0.30;;;4.50;99.90;;;;;;6242271;22;20677;-82
2023/01/15 10:49:18;;;;;;;0.85;0.40;;;4.50;99.90;;;;;;6242560;22;20133;-79
2023/01/15 10:51:47;;;;;;;0.40;0.30;;;4.50;99.90;;;;;;6238214;23;20179;-78
2023/01/15 10:54:19;;;;;;;0.50;0.30;;;4.40;99.90;;;;;;6240453;23;20171;-80
2023/01/15 10:57:10;;;;;;;0.40;0.30;;;4.40;99.90;;;;;;6242011;23;20210;-80
2023/01/15 10:59:46;;;;;;;0.30;0.30;;;4.40;99.90;;;;;;6238126;23;20154;-81
2023/01/15 11:02:41;;;;;;;0.50;0.38;;;4.40;99.90;;;;;;6240805;22;20195;-80
2023/01/15 11:05:14;;;;;;;2.17;0.63;;;4.50;99.90;;;;;;6226656;23;20228;-79
2023/01/15 11:07:49;;;;;;;0.40;0.40;;;4.30;99.90;;;;;;6243417;22;20239;-81
2023/01/15 11:10:18;;;;;;;0.70;0.30;;;4.30;99.90;;;;;;6237638;23;20156;-80
2023/01/15 11:22:19;;;;;;;0.95;0.30;;;4.20;99.90;;;;;;6240693;23;20235;-81
2023/01/15 11:24:59;;;;;;;0.65;0.43;;;4.20;99.90;;;;;;6239936;23;20157;-80
2023/01/15 11:27:30;;;;;;;0.40;0.40;;;4.20;99.90;;;;;;6226679;23;20218;-82
2023/01/15 11:29:58;;;;;;;0.68;0.50;;;4.20;99.90;;;;;;6241667;22;20219;-81
2023/01/15 11:32:37;;;;;;;1.23;0.50;;;4.10;99.90;;;;;;6241586;22;20184;-80
2023/01/15 11:35:15;;;;;;;1.08;0.30;;;4.20;99.90;;;;;;6240101;23;20198;-81
2023/01/15 11:37:40;;;;;;;7.55;1.45;;;4.10;99.90;;;;;;6239704;22;20137;-80
2023/01/15 11:40:26;;;;;;;1.00;0.60;;;4.20;99.90;;;;;;6240210;23;20169;-80
2023/01/15 11:51:28;;;;;;;0.70;0.70;;;4.20;99.90;;;;;;6234548;23;20214;-81
2023/01/15 11:53:59;;;;;;;0.85;0.55;;;4.20;99.90;;;;;;6241527;22;20557;-81
2023/01/15 11:56:28;;;;;;;2.65;0.63;;;4.30;99.90;;;;;;6248532;23;20152;-81
2023/01/15 11:59:00;;;;;;;0.95;0.50;;;4.30;99.90;;;;;;6250159;22;20207;-79
2023/01/15 12:01:34;;;;;;;0.75;0.63;;;4.30;99.90;;;;;;6256825;22;20165;-80
2023/01/15 12:04:06;;;;;;;2.60;0.60;;;4.40;99.90;;;;;;6242854;22;20194;-80
2023/01/15 12:06:38;;;;;;;0.85;0.68;;;4.40;99.90;;;;;;6238871;23;20152;-80
2023/01/15 12:09:40;;;;;;;0.90;0.50;;;4.30;99.90;;;;;;6238973;23;20151;-79
2023/01/15 12:12:11;;;;;;;3.92;1.08;;;4.30;99.90;;;;;;6238812;23;20259;-79
2023/01/15 12:14:43;;;;;;;0.60;0.60;;;4.30;99.90;;;;;;6240895;23;20519;-79
2023/01/15 12:17:29;;;;;;;0.57;0.30;;;4.40;99.90;;;;;;6240283;22;20144;-80
2023/01/15 12:20:16;;;;;;;0.93;0.60;;;4.40;99.90;;;;;;6238893;23;20322;-80
2023/01/15 12:23:10;;;;;;;2.00;0.82;;;4.40;99.90;;;;;;6236665;23;20615;-79
2023/01/15 12:25:58;;;;;;;2.10;1.08;;;4.30;99.90;;;;;;6238744;23;20160;-81
2023/01/15 12:28:30;;;;;;;8.52;2.92;;;4.30;99.90;;;;;;6239788;23;20484;-81
2023/01/15 12:31:17;;;;;;;1.88;1.52;;;4.40;99.90;;;;;;6239538;22;20135;-79
2023/01/15 12:33:52;;;;;;;5.55;1.73;;;4.50;99.90;;;;;;6241029;22;20137;-81
2023/01/15 12:36:36;;;;;;;2.42;1.42;;;4.50;99.90;;;;;;6238902;23;20583;-81
2023/01/15 12:39:11;;;;;;;1.95;0.70;;;4.50;99.90;;;;;;6237043;23;20237;-80
2023/01/15 12:45:03;;;;;;;0.60;0.60;;;4.50;99.90;;;;;;6175257;23;20238;-80
2023/01/15 12:47:31;;;;;;;6.60;1.30;;;4.50;99.90;;;;;;6232604;22;20181;-81
2023/01/15 12:50:18;;;;;;;1.63;0.70;;;4.60;99.90;;;;;;6235562;23;20149;-81
2023/01/15 12:52:47;;;;;;;4.07;1.15;;;4.70;99.90;;;;;;6236662;23;20165;-78
2023/01/15 12:55:19;;;;;;;2.63;0.70;;;4.70;99.90;;;;;;6238790;22;20141;-81
2023/01/15 12:57:49;;;;;;;2.78;0.57;;;4.60;99.90;;;;;;6240822;22;20141;-81
2023/01/15 13:01:01;;;;;;;2.25;0.77;;;4.70;99.90;;;;;;6235770;23;20167;-81
2023/01/15 13:03:31;;;;;;;1.95;0.50;;;4.70;99.90;;;;;;6091094;23;20160;-82
2023/01/15 13:06:00;;;;;;;2.15;0.80;;;4.80;99.90;;;;;;6117017;23;20171;-81
2023/01/15 13:08:37;;;;;;;2.10;0.65;;;4.80;99.90;;;;;;6186191;22;20198;-80
2023/01/15 13:11:03;;;;;;;3.92;2.00;;;4.70;99.90;;;;;;6238792;22;20206;-80
2023/01/15 13:13:34;;;;;;;2.43;0.93;;;4.70;99.90;;;;;;6237763;23;20231;-81
2023/01/15 13:16:16;;;;;;;3.22;0.60;;;4.80;99.90;;;;;;6236818;23;20438;-80
2023/01/15 13:19:07;;;;;;;2.33;0.60;;;4.70;99.90;;;;;;6239536;22;20172;-82
2023/01/15 13:21:34;;;;;;;0.73;0.43;;;4.90;99.90;;;;;;6238342;23;20206;-81
2023/01/15 13:24:18;;;;;;;1.40;1.10;;;5.00;99.90;;;;;;6239613;22;20133;-81
2023/01/15 13:27:06;;;;;;;4.22;0.73;;;4.90;99.90;;;;;;6238920;23;20180;-79
2023/01/15 13:29:49;;;;;;;1.08;0.50;;;5.00;99.90;;;;;;6241158;23;20188;-81
2023/01/15 13:32:20;;;;;;;1.40;0.80;;;5.00;99.90;;;;;;6237987;23;20192;-79
2023/01/15 13:34:50;;;;;;;1.95;0.60;;;5.10;99.90;;;;;;6241727;22;20774;-82
2023/01/15 13:37:22;;;;;;;5.63;0.88;;;5.10;99.90;;;;;;6240169;22;20475;-79
2023/01/15 13:39:50;;;;;;;4.05;0.93;;;5.00;99.90;;;;;;6238211;23;20167;-81
2023/01/15 13:42:32;;;;;;;9.43;2.97;;;5.00;99.90;;;;;;6241170;22;20604;-80
2023/01/15 13:45:17;;;;;;;2.35;0.52;;;4.90;99.90;;;;;;6240396;22;20133;-80
2023/01/15 13:47:47;;;;;;;1.75;1.02;;;4.90;99.90;;;;;;6263868;22;20522;-80
2023/01/15 13:50:18;;;;;;;0.60;0.40;;;4.90;99.90;;;;;;6236589;23;20160;-81
2023/01/15 13:52:45;;;;;;;3.85;0.90;;;4.90;99.90;;;;;;6237363;23;20631;-79
2023/01/15 13:55:33;;;;;;;0.73;0.52;;;4.90;99.90;;;;;;6237574;23;20149;-78
2023/01/15 13:57:58;;;;;;;6.82;1.17;;;4.90;99.90;;;;;;6241011;23;20152;-81
2023/01/15 14:00:37;;;;;;;1.90;0.57;;;4.80;99.90;;;;;;6239838;23;20137;-81